Time;durP1;ratioP1;P1;durP2;ratioP2;P2;SDS_P1;SDS_P2;PMS_P1;PMS_P2;Temp;Humidity;BMP_temperature;BMP_pressure;BME280_temperature;BME280_humidity;BME280_pressure;Samples;Min_cycle;Max_cycle;Signal;HPM_P1;HPM_P2
2021/07/18 00:01:49;;;;;;;;;11.25;8.50;;;;;23.22;52.83;101838.53;5078141;27;45407;-50
2021/07/18 00:04:14;;;;;;;;;8.50;8.50;;;;;23.19;52.86;101834.25;5080418;27;45496;-50
2021/07/18 00:06:39;;;;;;;;;8.00;8.00;;;;;23.20;52.98;101838.63;5079627;27;45391;-52
2021/07/18 00:09:05;;;;;;;;;9.00;7.25;;;;;23.19;53.07;101828.09;5079716;27;45377;-49
2021/07/18 00:11:31;;;;;;;;;8.25;7.00;;;;;23.20;52.99;101829.84;5079691;28;45392;-49
2021/07/18 00:13:56;;;;;;;;;8.25;8.25;;;;;23.20;53.09;101832.50;5080096;27;45334;-50
2021/07/18 00:16:21;;;;;;;;;7.50;7.50;;;;;23.20;52.68;101833.34;5079463;27;45723;-50
2021/07/18 00:18:47;;;;;;;;;7.75;7.25;;;;;23.20;52.78;101835.13;5079766;27;45358;-49
2021/07/18 00:21:12;;;;;;;;;6.50;6.50;;;;;23.20;52.58;101837.78;5079682;27;45165;-51
2021/07/18 00:23:37;;;;;;;;;7.25;6.00;;;;;23.19;52.77;101833.38;5079840;27;45248;-54
2021/07/18 00:26:04;;;;;;;;;8.75;8.25;;;;;23.17;52.88;101833.44;5079373;27;45348;-53
2021/07/18 00:28:30;;;;;;;;;6.75;5.50;;;;;23.19;52.88;101830.75;5079467;27;45663;-59
2021/07/18 00:30:55;;;;;;;;;7.00;6.75;;;;;23.19;52.88;101841.31;5079492;27;45484;-53
2021/07/18 00:33:20;;;;;;;;;10.00;7.00;;;;;23.19;52.86;101836.03;5079659;27;45218;-50
2021/07/18 00:35:46;;;;;;;;;7.00;6.00;;;;;23.19;53.15;101846.59;5079522;27;45275;-50
2021/07/18 00:38:11;;;;;;;;;6.75;6.75;;;;;23.19;53.06;101842.19;5079174;27;45440;-49
2021/07/18 00:40:36;;;;;;;;;9.75;6.50;;;;;23.19;52.82;101836.03;5079350;27;45238;-49
2021/07/18 00:43:03;;;;;;;;;7.25;7.00;;;;;23.19;52.70;101841.31;5079644;27;45504;-50
2021/07/18 00:45:29;;;;;;;;;6.00;6.00;;;;;23.19;52.81;101838.69;5079000;27;46136;-50
2021/07/18 00:47:55;;;;;;;;;7.75;6.50;;;;;23.17;52.83;101826.38;5079115;27;45426;-50
2021/07/18 00:50:20;;;;;;;;;6.00;6.00;;;;;23.19;52.83;101830.75;5079619;27;45310;-51
2021/07/18 00:52:46;;;;;;;;;11.00;8.00;;;;;23.18;52.97;101835.16;5078156;28;45598;-49
2021/07/18 00:55:13;;;;;;;;;7.00;7.00;;;;;23.19;53.12;101838.69;5079046;27;45317;-50
2021/07/18 00:57:38;;;;;;;;;6.00;6.00;;;;;23.19;53.00;101838.69;5079004;27;45590;-50
2021/07/18 01:00:08;;;;;;;;;8.50;8.00;;;;;23.19;52.86;101839.56;5078829;27;45237;-50
2021/07/18 01:02:35;;;;;;;;;6.25;6.25;;;;;23.20;52.87;101835.13;5079119;28;45388;-49
2021/07/18 01:05:01;;;;;;;;;7.00;7.00;;;;;23.16;53.04;101835.25;5078720;27;45578;-58
2021/07/18 01:07:27;;;;;;;;;7.00;6.00;;;;;23.19;52.82;101828.09;5077564;27;45590;-59
2021/07/18 01:09:52;;;;;;;;;7.25;7.25;;;;;23.19;52.63;101830.75;5078978;27;45213;-49
2021/07/18 01:12:18;;;;;;;;;7.25;7.00;;;;;23.19;53.08;101836.91;5078997;27;45314;-56
2021/07/18 01:14:44;;;;;;;;;6.00;6.00;;;;;23.18;52.70;101843.09;5078624;27;46092;-55
2021/07/18 01:17:10;;;;;;;;;7.00;7.00;;;;;23.19;52.73;101841.31;5078648;28;45410;-56
2021/07/18 01:19:39;;;;;;;;;7.50;7.50;;;;;23.19;52.55;101843.97;5078704;27;45500;-53
2021/07/18 01:22:04;;;;;;;;;9.00;8.00;;;;;23.18;52.88;101843.09;5079036;27;45256;-49
2021/07/18 01:24:32;;;;;;;;;6.00;6.00;;;;;23.16;52.95;101840.53;5078519;27;46869;-53
2021/07/18 01:26:59;;;;;;;;;6.00;6.00;;;;;23.17;52.92;101836.97;5078788;27;45177;-55
2021/07/18 01:29:26;;;;;;;;;5.00;5.00;;;;;23.19;52.77;101843.97;5078781;27;45445;-56
2021/07/18 01:31:52;;;;;;;;;6.25;6.25;;;;;23.17;52.97;101844.03;5079175;27;45476;-57
2021/07/18 01:34:17;;;;;;;;;4.75;4.75;;;;;23.16;52.75;101837.91;5078425;27;46028;-56
2021/07/18 01:36:43;;;;;;;;;9.50;8.25;;;;;23.16;52.62;101835.25;5078546;28;45892;-52
2021/07/18 01:39:10;;;;;;;;;7.00;7.00;;;;;23.18;52.75;101845.75;5078295;27;45378;-55
2021/07/18 01:41:37;;;;;;;;;7.00;6.00;;;;;23.17;52.81;101844.91;5078715;27;45540;-56
2021/07/18 01:44:03;;;;;;;;;8.25;6.00;;;;;23.18;52.85;101837.81;5078057;27;46720;-58
2021/07/18 01:46:29;;;;;;;;;4.75;4.25;;;;;23.18;52.67;101843.09;5078143;27;45308;-60
2021/07/18 01:48:55;;;;;;;;;6.25;5.00;;;;;23.16;52.87;101840.53;5078335;27;45299;-55
2021/07/18 01:51:25;;;;;;;;;6.25;6.25;;;;;23.17;52.75;101830.81;5078480;27;45305;-54
2021/07/18 01:53:54;;;;;;;;;10.00;8.00;;;;;23.16;52.74;101839.66;5076991;28;47939;-58
2021/07/18 01:56:21;;;;;;;;;7.75;6.00;;;;;23.16;52.95;101835.25;5078265;28;45151;-56
2021/07/18 01:58:50;;;;;;;;;7.00;6.00;;;;;23.17;52.77;101836.97;5078167;27;45239;-56
2021/07/18 02:01:17;;;;;;;;;8.25;5.00;;;;;23.16;52.72;101822.03;5078159;27;45288;-56
2021/07/18 02:03:44;;;;;;;;;5.50;5.50;;;;;23.17;52.88;101826.38;5077929;27;45265;-57
2021/07/18 02:06:09;;;;;;;;;6.50;6.50;;;;;23.17;52.73;101828.16;5077987;27;45329;-49
2021/07/18 02:08:34;;;;;;;;;5.25;5.25;;;;;23.16;52.59;101827.31;5078149;27;45795;-50
2021/07/18 02:11:00;;;;;;;;;7.50;6.50;;;;;23.16;52.77;101829.97;5078028;27;45543;-49
2021/07/18 02:13:25;;;;;;;;;6.25;6.25;;;;;23.17;52.90;101836.97;5077777;27;45605;-49
2021/07/18 02:15:51;;;;;;;;;6.50;5.75;;;;;23.16;52.83;101829.97;5077980;27;45388;-57
2021/07/18 02:18:16;;;;;;;;;7.75;7.25;;;;;23.17;52.98;101830.81;5076808;28;45369;-55
2021/07/18 02:20:42;;;;;;;;;5.75;5.75;;;;;23.14;53.00;101821.25;5077877;27;45302;-59
2021/07/18 02:23:08;;;;;;;;;6.75;6.00;;;;;23.15;52.69;101833.53;5077445;27;46152;-50
2021/07/18 02:25:34;;;;;;;;;6.00;6.00;;;;;23.14;52.80;101828.34;5075675;28;45406;-49
2021/07/18 02:27:59;;;;;;;;;5.50;5.00;;;;;23.16;52.77;101827.31;5077598;27;45367;-56
2021/07/18 02:30:26;;;;;;;;;7.25;6.25;;;;;23.15;52.71;101822.97;5078172;27;45358;-52
2021/07/18 02:32:52;;;;;;;;;6.00;6.00;;;;;23.15;52.99;101822.13;5077596;27;46140;-52
2021/07/18 02:35:19;;;;;;;;;7.50;6.00;;;;;23.15;52.57;101833.53;5077471;27;45327;-51
2021/07/18 02:37:45;;;;;;;;;6.00;6.00;;;;;23.14;52.91;101820.41;5077524;27;45174;-55
2021/07/18 02:40:12;;;;;;;;;5.75;5.75;;;;;23.15;52.63;101822.97;5077293;27;45318;-55
2021/07/18 02:42:38;;;;;;;;;7.00;5.50;;;;;23.15;52.65;101830.88;5077239;27;46350;-56
2021/07/18 02:45:06;;;;;;;;;7.50;6.00;;;;;23.14;52.55;101826.53;5077247;27;45345;-58
2021/07/18 02:47:31;;;;;;;;;7.50;5.00;;;;;23.14;52.63;101825.69;5077246;27;45487;-57
2021/07/18 02:49:56;;;;;;;;;6.50;6.50;;;;;23.13;52.84;101818.69;5077811;27;45314;-58
2021/07/18 02:52:22;;;;;;;;;6.75;5.50;;;;;23.15;52.87;101822.97;5076085;28;47489;-56
2021/07/18 02:54:47;;;;;;;;;8.25;7.25;;;;;23.14;52.91;101815.97;5077096;27;45341;-53
2021/07/18 02:57:13;;;;;;;;;7.00;7.00;;;;;23.13;52.65;101814.25;5077276;27;45643;-59
2021/07/18 02:59:38;;;;;;;;;8.00;6.75;;;;;23.15;52.72;101814.19;5077209;27;45540;-57
2021/07/18 03:02:03;;;;;;;;;6.50;5.00;;;;;23.15;52.72;101803.59;5076699;27;50592;-50
2021/07/18 03:04:30;;;;;;;;;5.75;5.75;;;;;23.14;52.42;101809.81;5076915;27;45474;-51
2021/07/18 03:06:56;;;;;;;;;5.75;5.75;;;;;23.13;52.82;101808.94;5077462;27;45247;-50
2021/07/18 03:09:23;;;;;;;;;4.25;4.25;;;;;23.13;52.75;101811.59;5077170;28;45295;-50
2021/07/18 03:11:50;;;;;;;;;7.00;7.00;;;;;23.13;52.75;101811.59;5076772;27;46264;-52
2021/07/18 03:14:15;;;;;;;;;7.75;7.00;;;;;23.13;52.49;101810.75;5076727;28;45733;-50
2021/07/18 03:16:41;;;;;;;;;6.50;6.50;;;;;23.14;52.57;101812.47;5076675;27;45379;-49
2021/07/18 03:19:06;;;;;;;;;7.00;6.00;;;;;23.11;52.94;101810.81;5076916;27;45534;-52
2021/07/18 03:21:34;;;;;;;;;7.75;7.75;;;;;23.13;52.73;101803.66;5076678;28;46339;-55
2021/07/18 03:24:00;;;;;;;;;6.00;5.25;;;;;23.12;52.71;101811.69;5076546;27;45345;-56
2021/07/18 03:26:26;;;;;;;;;5.25;5.25;;;;;23.12;52.63;101812.53;5077189;27;45375;-58
2021/07/18 03:28:51;;;;;;;;;9.00;8.00;;;;;23.13;52.50;101802.81;5077026;27;45201;-58
2021/07/18 03:31:16;;;;;;;;;7.25;6.25;;;;;23.12;52.71;101807.25;5076523;27;46071;-59
2021/07/18 03:33:42;;;;;;;;;7.75;6.00;;;;;23.12;52.85;101803.75;5076574;27;45342;-59
2021/07/18 03:36:07;;;;;;;;;5.25;5.25;;;;;23.11;52.66;101800.25;5076589;27;45295;-53
2021/07/18 03:38:33;;;;;;;;;5.00;5.00;;;;;23.12;52.75;101803.75;5076187;27;45635;-59
2021/07/18 03:40:58;;;;;;;;;7.75;5.50;;;;;23.11;52.64;101800.25;5076649;27;45443;-58
2021/07/18 03:43:23;;;;;;;;;8.00;8.00;;;;;23.11;52.88;101804.69;5076472;27;45290;-56
2021/07/18 03:45:48;;;;;;;;;10.00;7.75;;;;;23.11;52.57;101802.03;5076376;27;45341;-59
2021/07/18 03:48:14;;;;;;;;;5.50;5.50;;;;;23.09;52.99;101796.84;5076379;28;45518;-59
2021/07/18 03:50:39;;;;;;;;;9.00;7.50;;;;;23.11;52.73;101805.53;5057994;28;48030;-59
2021/07/18 03:53:05;;;;;;;;;4.50;4.50;;;;;23.11;52.44;101804.69;5076225;27;45453;-58
2021/07/18 03:55:30;;;;;;;;;8.00;6.75;;;;;23.10;52.47;101803.81;5076881;27;45305;-50
2021/07/18 03:57:55;;;;;;;;;8.25;7.75;;;;;23.06;52.58;101798.75;5076857;27;45575;-59
2021/07/18 04:00:21;;;;;;;;;6.25;5.75;;;;;23.10;52.67;101814.38;5076098;27;46185;-58
2021/07/18 04:02:47;;;;;;;;;5.50;5.50;;;;;23.09;52.88;101810.06;5076166;27;45692;-59
2021/07/18 04:05:12;;;;;;;;;7.00;7.00;;;;;23.09;52.80;101807.41;5076142;27;45169;-59
2021/07/18 04:07:38;;;;;;;;;5.75;5.75;;;;;23.10;52.58;101808.25;5076432;27;45595;-59
2021/07/18 04:10:04;;;;;;;;;7.25;5.50;;;;;23.08;52.87;101805.69;5076089;27;46076;-59
2021/07/18 04:12:29;;;;;;;;;4.25;4.25;;;;;23.09;52.61;101798.63;5076547;27;45867;-59
2021/07/18 04:14:55;;;;;;;;;5.00;5.00;;;;;23.08;52.87;101808.34;5076284;27;45241;-59
2021/07/18 04:17:21;;;;;;;;;7.25;5.00;;;;;23.07;52.74;101813.69;5076460;27;45293;-60
2021/07/18 04:19:46;;;;;;;;;9.00;7.25;;;;;23.07;52.88;101809.28;5075450;27;45268;-59
2021/07/18 04:22:11;;;;;;;;;6.50;5.25;;;;;23.05;52.54;101811.13;5076055;27;45411;-59
2021/07/18 04:24:37;;;;;;;;;7.50;6.00;;;;;23.04;52.46;101809.44;5076174;27;45390;-59
2021/07/18 04:27:02;;;;;;;;;7.75;6.75;;;;;23.06;52.62;101817.28;5076448;27;45440;-55
2021/07/18 04:29:28;;;;;;;;;6.25;5.50;;;;;23.07;52.87;101819.84;5076324;27;46421;-58
2021/07/18 04:31:53;;;;;;;;;7.50;7.50;;;;;23.07;52.64;101821.63;5075974;27;45318;-52
2021/07/18 04:34:18;;;;;;;;;9.00;7.25;;;;;23.06;52.78;101823.44;5074787;27;45413;-52
2021/07/18 04:36:45;;;;;;;;;8.75;5.75;;;;;23.04;52.42;101819.16;5076320;27;45522;-57
2021/07/18 04:39:10;;;;;;;;;8.00;6.25;;;;;23.06;52.62;101822.56;5075621;27;46363;-53
2021/07/18 04:41:37;;;;;;;;;7.00;6.00;;;;;23.05;52.79;101824.34;5075762;27;45311;-53
2021/07/18 04:44:03;;;;;;;;;4.00;4.00;;;;;23.04;52.70;101822.66;5076225;27;45319;-54
2021/07/18 04:46:28;;;;;;;;;7.25;7.00;;;;;23.05;53.11;101824.34;5076330;27;45620;-52
2021/07/18 04:48:53;;;;;;;;;6.75;6.75;;;;;23.05;52.89;101823.47;5078866;27;45296;-52
2021/07/18 04:51:19;;;;;;;;;7.00;4.00;;;;;23.05;52.55;101820.84;5079098;27;45294;-49
2021/07/18 04:53:44;;;;;;;;;8.75;7.00;;;;;23.01;52.86;101820.16;5079175;27;45263;-55
2021/07/18 04:56:09;;;;;;;;;6.25;5.75;;;;;23.03;52.64;101826.22;5078039;27;45227;-50
2021/07/18 04:58:35;;;;;;;;;7.00;5.75;;;;;22.98;52.58;101820.31;5078839;27;46117;-51
2021/07/18 05:01:00;;;;;;;;;9.50;5.50;;;;;23.02;52.63;101827.16;5077778;28;45887;-50
2021/07/18 05:03:25;;;;;;;;;8.00;7.25;;;;;23.05;52.46;101839.34;5079139;27;45268;-50
2021/07/18 05:05:51;;;;;;;;;7.00;5.50;;;;;23.04;52.17;101841.16;5079105;27;45212;-53
2021/07/18 05:08:16;;;;;;;;;7.25;6.25;;;;;23.05;52.82;101853.44;5078545;27;49682;-53
2021/07/18 05:10:41;;;;;;;;;5.00;5.00;;;;;23.05;52.69;101852.56;5078911;27;45165;-50
2021/07/18 05:13:07;;;;;;;;;7.00;6.00;;;;;23.03;52.49;101852.66;5078913;27;45448;-56
2021/07/18 05:15:34;;;;;;;;;7.25;7.25;;;;;23.03;52.66;101843.88;5079441;27;45330;-51
2021/07/18 05:18:09;;;;;;;;;4.50;4.50;;;;;23.01;52.34;101843.94;5078922;27;46564;-50
2021/07/18 05:20:34;;;;;;;;;5.00;5.00;;;;;23.02;52.77;101850.94;5077396;28;45727;-50
2021/07/18 05:23:00;;;;;;;;;7.00;6.00;;;;;23.01;52.60;101842.16;5077834;28;45395;-57
2021/07/18 05:25:25;;;;;;;;;8.50;6.00;;;;;23.05;52.67;101848.16;5078923;27;45424;-50
2021/07/18 05:27:50;;;;;;;;;7.00;5.50;;;;;23.04;52.52;101851.72;5078530;27;46429;-56
2021/07/18 05:30:16;;;;;;;;;7.00;5.25;;;;;23.04;52.44;101845.59;5078562;27;45397;-57
2021/07/18 05:32:41;;;;;;;;;6.25;5.00;;;;;23.04;52.50;101835.88;5076890;27;45442;-56
2021/07/18 05:35:08;;;;;;;;;7.25;5.00;;;;;23.02;52.73;101835.09;5078673;27;45401;-57
2021/07/18 05:37:34;;;;;;;;;7.25;6.00;;;;;23.04;52.66;101846.44;5078649;27;45794;-55
2021/07/18 05:40:00;;;;;;;;;6.50;6.00;;;;;23.05;52.38;101852.56;5078054;28;45308;-50
2021/07/18 05:42:25;;;;;;;;;6.25;6.25;;;;;23.04;52.44;101846.44;5078633;27;45301;-56
2021/07/18 05:44:50;;;;;;;;;5.25;5.25;;;;;23.03;52.65;101839.44;5078533;27;45519;-54
2021/07/18 05:47:16;;;;;;;;;6.00;6.00;;;;;23.04;52.60;101846.44;5078171;27;47185;-49
2021/07/18 05:49:41;;;;;;;;;8.50;7.00;;;;;23.05;52.33;101842.00;5078152;27;45271;-51
2021/07/18 05:52:07;;;;;;;;;6.50;4.75;;;;;23.05;52.38;101852.56;5078248;27;45717;-51
2021/07/18 05:54:32;;;;;;;;;6.00;6.00;;;;;23.05;52.35;101842.00;5078716;27;45425;-50
2021/07/18 05:56:58;;;;;;;;;6.00;6.00;;;;;23.05;52.50;101842.00;5078058;27;45394;-53
2021/07/18 05:59:23;;;;;;;;;7.00;7.00;;;;;23.05;52.38;101847.28;5076717;27;45373;-49
2021/07/18 06:01:49;;;;;;;;;9.00;8.00;;;;;23.05;52.35;101842.88;5078100;27;45236;-53
2021/07/18 06:04:15;;;;;;;;;5.00;5.00;;;;;23.04;52.59;101851.72;5078251;27;45407;-49
2021/07/18 06:06:40;;;;;;;;;6.75;5.00;;;;;23.05;52.30;101840.22;5077793;27;46324;-49
2021/07/18 06:09:05;;;;;;;;;6.25;4.25;;;;;23.05;52.33;101853.44;5078164;27;45426;-49
2021/07/18 06:11:31;;;;;;;;;7.00;5.50;;;;;23.07;52.44;101858.66;5076652;27;45379;-49
2021/07/18 06:13:56;;;;;;;;;9.00;5.00;;;;;23.06;52.39;101841.06;5078190;27;45458;-49
2021/07/18 06:16:22;;;;;;;;;8.50;5.50;;;;;23.07;52.15;101848.06;5077777;27;46622;-50
2021/07/18 06:18:47;;;;;;;;;7.00;7.00;;;;;23.08;52.37;101852.44;5077578;27;45173;-53
2021/07/18 06:21:12;;;;;;;;;4.75;4.75;;;;;23.07;52.41;101856.00;5077780;27;45366;-49
2021/07/18 06:23:38;;;;;;;;;5.75;5.75;;;;;23.07;52.04;101853.34;5076641;28;45435;-50
2021/07/18 06:26:04;;;;;;;;;7.25;7.00;;;;;23.08;52.31;101849.78;5077919;27;46277;-49
2021/07/18 06:28:31;;;;;;;;;9.00;6.75;;;;;23.07;52.27;101856.88;5077509;27;45312;-48
2021/07/18 06:30:56;;;;;;;;;5.00;5.00;;;;;23.09;52.41;101860.31;5077559;27;45433;-49
2021/07/18 06:33:22;;;;;;;;;7.00;7.00;;;;;23.08;52.31;101852.44;5077772;27;45426;-49
2021/07/18 06:35:47;;;;;;;;;6.25;5.00;;;;;23.10;52.18;101851.41;5077357;27;45408;-49
2021/07/18 06:38:12;;;;;;;;;6.50;6.00;;;;;23.10;52.07;101861.97;5077200;27;45531;-50
2021/07/18 06:40:38;;;;;;;;;4.50;4.50;;;;;23.11;51.98;101853.13;5077935;27;45294;-50
2021/07/18 06:43:03;;;;;;;;;6.00;5.00;;;;;23.12;52.21;101856.63;5078030;27;45511;-52
2021/07/18 06:45:28;;;;;;;;;7.25;4.25;;;;;23.10;52.06;101861.16;5077188;27;46537;-49
2021/07/18 06:47:54;;;;;;;;;7.25;7.25;;;;;23.11;52.35;101869.00;5077279;27;45338;-50
2021/07/18 06:50:20;;;;;;;;;7.00;5.50;;;;;23.10;52.11;101867.28;5077294;27;45417;-49
2021/07/18 06:52:46;;;;;;;;;6.50;6.50;;;;;23.13;52.29;101859.19;5077344;27;45520;-49
2021/07/18 06:55:11;;;;;;;;;5.75;5.75;;;;;23.13;52.19;101856.56;5077113;27;45394;-55
2021/07/18 06:57:37;;;;;;;;;5.75;5.25;;;;;23.13;52.32;101855.72;5077456;28;45371;-53
2021/07/18 07:00:06;;;;;;;;;5.00;5.00;;;;;23.14;51.98;101858.25;5077286;27;45338;-49
2021/07/18 07:02:32;;;;;;;;;8.25;5.25;;;;;23.15;52.05;101853.84;5077323;27;45473;-51
2021/07/18 07:04:58;;;;;;;;;5.00;5.00;;;;;23.16;52.06;101858.19;5077169;27;45450;-54
2021/07/18 07:07:23;;;;;;;;;5.50;5.50;;;;;23.16;52.19;101855.53;5077044;27;45310;-52
2021/07/18 07:09:48;;;;;;;;;6.00;6.00;;;;;23.16;52.12;101856.41;5076692;27;45357;-51
2021/07/18 07:12:14;;;;;;;;;5.25;4.50;;;;;23.15;52.34;101865.28;5077296;27;45385;-50
2021/07/18 07:14:39;;;;;;;;;5.00;5.00;;;;;23.15;52.10;101857.34;5077612;27;46272;-49
2021/07/18 07:17:04;;;;;;;;;7.00;7.00;;;;;23.18;51.89;101858.97;5076766;27;45404;-51
2021/07/18 07:19:30;;;;;;;;;6.00;6.00;;;;;23.20;51.94;101858.94;5077046;27;45367;-52
2021/07/18 07:21:55;;;;;;;;;4.75;4.75;;;;;23.21;52.34;101860.63;5077190;27;45459;-55
2021/07/18 07:24:21;;;;;;;;;4.50;4.25;;;;;23.21;52.26;101860.63;5076781;27;45317;-53
2021/07/18 07:26:46;;;;;;;;;5.00;4.50;;;;;23.23;51.79;101861.41;5075492;28;45344;-50
2021/07/18 07:29:11;;;;;;;;;6.25;6.00;;;;;23.23;52.03;101856.13;5076789;27;45341;-51
2021/07/18 07:31:37;;;;;;;;;6.25;6.25;;;;;23.24;52.19;101857.81;5077093;28;45378;-52
2021/07/18 07:34:03;;;;;;;;;6.75;6.75;;;;;23.25;52.33;101855.13;5076486;27;46132;-51
2021/07/18 07:36:28;;;;;;;;;7.00;6.00;;;;;23.26;51.90;101861.25;5076530;27;45562;-50
2021/07/18 07:38:55;;;;;;;;;6.00;6.00;;;;;23.28;52.21;101859.41;5076481;27;45187;-50
2021/07/18 07:41:21;;;;;;;;;7.00;5.25;;;;;23.28;51.97;101860.22;5075403;28;45294;-48
2021/07/18 07:43:46;;;;;;;;;6.00;5.50;;;;;23.31;52.13;101861.88;5076378;27;46996;-49
2021/07/18 07:46:12;;;;;;;;;4.75;4.75;;;;;23.31;51.93;101859.25;5076854;27;45329;-49
2021/07/18 07:48:37;;;;;;;;;5.75;5.75;;;;;23.31;52.25;101857.44;5076830;27;45377;-49
2021/07/18 07:51:04;;;;;;;;;7.25;5.25;;;;;23.32;51.94;101860.94;5076672;27;45354;-50
2021/07/18 07:53:30;;;;;;;;;4.75;4.00;;;;;23.32;52.41;101855.63;5076486;27;46291;-49
2021/07/18 07:55:56;;;;;;;;;4.50;4.50;;;;;23.33;52.31;101861.81;5076364;27;45307;-50
2021/07/18 07:58:21;;;;;;;;;7.50;6.00;;;;;23.34;52.29;101864.34;5076409;28;45392;-52
2021/07/18 08:00:46;;;;;;;;;6.25;5.50;;;;;23.34;52.42;101856.41;5076461;27;45396;-49
2021/07/18 08:03:12;;;;;;;;;6.75;5.50;;;;;23.33;52.54;101852.06;5076452;27;45239;-50
2021/07/18 08:05:37;;;;;;;;;5.25;5.25;;;;;23.36;52.32;101859.00;5076200;27;45358;-49
2021/07/18 08:08:04;;;;;;;;;3.50;3.50;;;;;23.38;52.10;101865.06;5076065;27;45224;-49
2021/07/18 08:10:29;;;;;;;;;5.00;4.50;;;;;23.34;52.17;101851.13;5076562;27;45483;-59
2021/07/18 08:12:55;;;;;;;;;7.75;6.00;;;;;23.37;52.02;101856.28;5076088;27;46075;-56
2021/07/18 08:15:22;;;;;;;;;6.00;5.25;;;;;23.38;52.29;101855.34;5076166;27;45267;-57
2021/07/18 08:17:48;;;;;;;;;5.25;4.75;;;;;23.37;52.28;101858.91;5076313;27;45352;-59
2021/07/18 08:20:17;;;;;;;;;5.00;5.00;;;;;23.37;51.94;101853.63;5076475;27;45553;-50
2021/07/18 08:22:45;;;;;;;;;4.50;4.50;;;;;23.31;52.22;101838.09;5078036;27;46263;-55
2021/07/18 08:25:12;;;;;;;;;4.00;4.00;;;;;23.39;51.83;101849.13;5080013;27;45403;-55
2021/07/18 08:27:37;;;;;;;;;7.00;5.00;;;;;23.41;51.86;101849.91;5079916;27;45501;-56
2021/07/18 08:30:07;;;;;;;;;6.00;5.00;;;;;23.39;52.22;101843.81;5079688;27;45530;-56
2021/07/18 08:32:33;;;;;;;;;7.50;6.00;;;;;23.41;51.79;101834.03;5079660;27;45236;-57
2021/07/18 08:34:59;;;;;;;;;4.00;4.00;;;;;23.42;51.86;101841.03;5080832;27;45177;-58
2021/07/18 08:37:24;;;;;;;;;5.00;5.00;;;;;23.43;51.92;101840.06;5079727;27;45214;-57
2021/07/18 08:39:51;;;;;;;;;5.00;5.00;;;;;23.43;51.86;101840.06;5078188;28;45272;-58
2021/07/18 08:42:21;;;;;;;;;4.25;4.25;;;;;23.44;51.86;101843.59;5079735;27;46243;-59
2021/07/18 08:44:47;;;;;;;;;6.00;5.00;;;;;23.43;51.79;101837.41;5081684;27;45785;-59
2021/07/18 08:47:12;;;;;;;;;4.25;4.00;;;;;23.43;51.74;101834.78;5079641;27;45331;-55
2021/07/18 08:49:39;;;;;;;;;8.00;6.00;;;;;23.46;51.84;101831.97;5079456;27;45178;-58
2021/07/18 08:52:05;;;;;;;;;4.00;4.00;;;;;23.46;51.88;101834.63;5079139;27;45273;-58
2021/07/18 08:54:32;;;;;;;;;4.50;4.00;;;;;23.47;51.45;101827.56;5079223;27;45235;-58
2021/07/18 08:57:00;;;;;;;;;4.25;4.00;;;;;23.48;51.75;101829.28;5079172;27;45273;-58
2021/07/18 08:59:26;;;;;;;;;4.50;4.25;;;;;23.45;51.44;101824.97;5079261;27;45482;-60
2021/07/18 09:01:51;;;;;;;;;4.00;4.00;;;;;23.47;51.81;101825.75;5078922;28;46667;-59
2021/07/18 09:04:17;;;;;;;;;3.00;3.00;;;;;23.47;51.98;101817.81;5078981;27;45489;-56
2021/07/18 09:06:47;;;;;;;;;4.00;4.00;;;;;23.47;51.37;101825.75;5079555;28;45369;-59
2021/07/18 09:09:22;;;;;;;;;4.00;4.00;;;;;23.51;51.29;101830.91;5079680;27;45333;-54
2021/07/18 09:11:57;;;;;;;;;3.25;3.25;;;;;23.50;51.40;101821.25;5077376;28;47968;-58
2021/07/18 09:14:23;;;;;;;;;4.75;3.25;;;;;23.51;51.47;101812.38;5078813;27;45415;-54
2021/07/18 09:16:50;;;;;;;;;4.00;4.00;;;;;23.51;51.29;101817.66;5078996;27;45316;-59
2021/07/18 09:19:23;;;;;;;;;3.50;3.50;;;;;23.52;51.45;101825.50;5079455;27;45543;-58
2021/07/18 09:21:50;;;;;;;;;3.50;2.75;;;;;23.54;51.17;101812.19;5078755;27;46337;-55
2021/07/18 09:24:19;;;;;;;;;3.00;3.00;;;;;23.54;51.44;101817.47;5078986;27;45685;-53
2021/07/18 09:26:45;;;;;;;;;4.75;3.00;;;;;23.52;50.82;101807.00;5077884;27;45300;-55
2021/07/18 09:29:26;;;;;;;;;4.00;3.25;;;;;23.55;51.32;101809.47;5078995;27;45552;-52
2021/07/18 09:32:02;;;;;;;;;3.25;3.25;;;;;23.55;51.27;101811.25;5078245;27;46234;-53
2021/07/18 09:34:35;;;;;;;;;6.00;5.00;;;;;23.56;50.86;101805.03;5078160;27;45335;-54
2021/07/18 09:37:13;;;;;;;;;3.25;3.25;;;;;23.56;50.86;101807.69;5078677;28;45287;-50
2021/07/18 09:39:41;;;;;;;;;4.00;2.00;;;;;23.57;51.10;101806.75;5078456;27;45514;-55
2021/07/18 09:42:06;;;;;;;;;4.00;3.00;;;;;23.58;51.31;101803.16;5078343;27;46187;-53
2021/07/18 09:44:43;;;;;;;;;2.75;2.75;;;;;23.54;51.25;101791.03;5078420;27;45272;-54
2021/07/18 09:47:10;;;;;;;;;4.00;3.00;;;;;23.56;50.93;101803.25;5078422;27;45359;-53
2021/07/18 09:49:36;;;;;;;;;5.50;4.00;;;;;23.56;50.75;101800.59;5078638;27;45299;-57
2021/07/18 09:52:28;;;;;;;;;4.00;3.00;;;;;23.60;50.92;101817.19;5076777;27;48703;-57
2021/07/18 09:54:56;;;;;;;;;3.75;3.00;;;;;23.58;50.87;101803.16;5078151;27;45663;-56
2021/07/18 09:57:37;;;;;;;;;4.00;4.00;;;;;23.59;50.89;101811.00;5078351;27;45313;-58
2021/07/18 10:00:12;;;;;;;;;3.00;3.00;;;;;23.60;50.92;101803.94;5078018;27;45432;-56
2021/07/18 10:02:41;;;;;;;;;3.50;3.25;;;;;23.60;50.27;101801.28;5078043;27;45399;-59
2021/07/18 10:05:15;;;;;;;;;3.00;3.00;;;;;23.60;50.47;101801.28;5077965;27;45328;-52
2021/07/18 10:07:40;;;;;;;;;2.75;2.75;;;;;23.61;50.51;101805.66;5077999;27;45367;-50
2021/07/18 10:10:06;;;;;;;;;3.25;3.25;;;;;23.59;50.49;101794.28;5078111;27;45334;-53
2021/07/18 10:12:34;;;;;;;;;5.00;3.50;;;;;23.62;50.55;101804.72;5077641;27;45321;-53
2021/07/18 10:15:01;;;;;;;;;4.00;4.00;;;;;23.63;50.04;101795.84;5077875;27;45762;-56
2021/07/18 10:17:29;;;;;;;;;4.50;4.00;;;;;23.61;50.13;101798.56;5076578;28;45407;-54
2021/07/18 10:19:55;;;;;;;;;4.00;2.00;;;;;23.62;50.10;101788.84;5077933;27;45450;-52
2021/07/18 10:22:22;;;;;;;;;3.00;3.00;;;;;23.63;50.21;101790.56;5077586;27;47370;-50
2021/07/18 10:24:49;;;;;;;;;3.00;3.00;;;;;23.64;50.28;101800.22;5076683;28;46346;-49
2021/07/18 10:27:19;;;;;;;;;2.75;2.75;;;;;23.65;50.24;101795.75;5077716;27;45386;-48
2021/07/18 10:29:46;;;;;;;;;2.00;2.00;;;;;23.62;49.67;101784.38;5078294;27;45489;-52
2021/07/18 10:32:15;;;;;;;;;4.50;3.75;;;;;23.66;50.16;101785.06;5077590;27;45350;-50
2021/07/18 10:34:41;;;;;;;;;3.00;3.00;;;;;23.66;50.01;101778.94;5076259;28;45668;-51
2021/07/18 10:37:11;;;;;;;;;2.00;2.00;;;;;23.67;49.72;101786.78;5077731;27;45394;-50
2021/07/18 10:39:40;;;;;;;;;4.00;3.75;;;;;23.67;49.64;101786.78;5077545;27;45313;-52
2021/07/18 10:42:13;;;;;;;;;3.00;3.00;;;;;23.67;49.73;101786.78;5077454;27;46415;-58
2021/07/18 10:44:46;;;;;;;;;3.00;3.00;;;;;23.67;49.80;101786.78;5076513;27;45719;-58
2021/07/18 10:47:12;;;;;;;;;4.25;4.00;;;;;23.66;49.84;101779.78;5077570;27;45303;-55
2021/07/18 10:49:49;;;;;;;;;5.50;5.25;;;;;23.68;49.55;101777.91;5077496;27;45569;-55
2021/07/18 10:52:15;;;;;;;;;4.00;4.00;;;;;23.67;49.62;101776.19;5077028;27;45996;-55
2021/07/18 10:54:44;;;;;;;;;3.00;3.00;;;;;23.68;49.48;101767.31;5077217;27;45721;-59
2021/07/18 10:57:24;;;;;;;;;3.00;3.00;;;;;23.69;49.63;101761.09;5077354;27;45414;-58
2021/07/18 10:59:50;;;;;;;;;4.00;3.00;;;;;23.68;49.16;101766.50;5076218;28;45267;-55
2021/07/18 11:02:29;;;;;;;;;3.75;3.75;;;;;23.69;49.35;101770.84;5075583;28;46082;-59
2021/07/18 11:04:54;;;;;;;;;3.00;3.00;;;;;23.68;49.18;101755.91;5077207;27;45389;-59
2021/07/18 11:07:19;;;;;;;;;5.25;4.00;;;;;23.70;49.28;101769.91;5077385;27;45298;-58
2021/07/18 11:09:47;;;;;;;;;4.00;3.00;;;;;23.69;49.68;101753.16;5077328;27;45496;-58
2021/07/18 11:12:32;;;;;;;;;3.00;3.00;;;;;23.70;49.10;101760.16;5076927;27;45577;-58
2021/07/18 11:15:15;;;;;;;;;2.00;2.00;;;;;23.72;49.15;101758.28;5075666;28;45678;-57
2021/07/18 11:18:05;;;;;;;;;4.00;4.00;;;;;23.72;49.12;101758.28;5076885;27;45480;-59
2021/07/18 11:20:56;;;;;;;;;5.00;5.00;;;;;23.71;49.20;101753.94;5077092;27;45154;-59
2021/07/18 11:23:30;;;;;;;;;4.75;4.75;;;;;23.72;49.01;101753.00;5076938;27;46864;-59